Time,TemperatureF,DewpointF,PressureIn,WindDirection,WindDirectionDegrees,WindSpeedMPH,WindSpeedGustMPH,Humidity,HourlyPrecipIn,Conditions,Clouds,dailyrainin,SoftwareType,DateUTC
2015-05-30 00:01:00,55.7,52.5,30.15,SE,146,0.0,0.0,89,0.00,RA,,0.00,WeatherDisplay:10.37,2015-05-30 04:01:00,
2015-05-30 00:06:00,55.7,52.5,30.15,SE,146,0.0,0.0,89,0.00,RA,,0.00,WeatherDisplay:10.37,2015-05-30 04:06:00,
2015-05-30 00:11:00,55.8,52.6,30.15,SE,146,1.2,1.2,89,0.00,CLR,,0.00,WeatherDisplay:10.37,2015-05-30 04:11:00,
2015-05-30 00:16:00,55.9,53.0,30.15,SE,146,3.5,3.5,90,0.00,CLR,,0.00,WeatherDisplay:10.37,2015-05-30 04:16:00,
2015-05-30 00:21:00,56.2,53.3,30.14,SE,146,1.2,1.2,90,0.00,CLR,,0.00,WeatherDisplay:10.37,2015-05-30 04:21:00,
2015-05-30 00:26:00,57.0,53.8,30.14,South,187,3.5,3.5,89,0.00,CLR,,0.00,WeatherDisplay:10.37,2015-05-30 04:26:00,
2015-05-30 00:31:00,57.9,54.4,30.14,South,187,1.2,0.0,88,0.00,CLR,,0.00,WeatherDisplay:10.37,2015-05-30 04:31:00,
2015-05-30 00:36:00,58.5,55.0,30.14,South,186,1.2,1.2,88,0.00,CLR,,0.00,WeatherDisplay:10.37,2015-05-30 04:36:00,
2015-05-30 00:41:00,58.4,54.9,30.13,South,186,1.2,1.2,88,0.00,CLR,,0.00,WeatherDisplay:10.37,2015-05-30 04:41:00,
2015-05-30 00:47:00,58.2,54.7,30.13,South,186,1.2,0.0,88,0.00,CLR,,0.00,WeatherDisplay:10.37,2015-05-30 04:47:00,
2015-05-30 00:52:00,57.8,54.3,30.13,South,186,1.2,1.2,88,0.00,CLR,,0.00,WeatherDisplay:10.37,2015-05-30 04:52:00,
2015-05-30 00:57:00,57.7,54.2,30.13,South,186,2.3,2.3,88,0.00,CLR,,0.00,WeatherDisplay:10.37,2015-05-30 04:57:00,
2015-05-30 01:02:00,58.3,54.8,30.12,SE,128,1.2,1.5,88,0.00,CLR,,0.00,WeatherDisplay:10.37,2015-05-30 05:02:00,
2015-05-30 01:07:00,59.5,55.6,30.12,SE,128,1.2,0.0,87,0.00,CLR,,0.00,WeatherDisplay:10.37,2015-05-30 05:07:00,
2015-05-30 01:12:00,59.9,56.0,30.12,SW,217,3.5,3.5,87,0.00,CLR,,0.00,WeatherDisplay:10.37,2015-05-30 05:12:00,
2015-05-30 01:17:00,60.2,56.0,30.12,South,177,0.0,0.0,86,0.00,CLR,,0.00,WeatherDisplay:10.37,2015-05-30 05:17:00,
2015-05-30 01:22:00,60.0,55.8,30.12,South,174,1.2,0.0,86,0.00,CLR,,0.00,WeatherDisplay:10.37,2015-05-30 05:22:00,
2015-05-30 01:27:00,59.8,55.9,30.12,South,173,1.2,0.0,87,0.00,CLR,,0.00,WeatherDisplay:10.37,2015-05-30 05:27:00,
2015-05-30 01:32:00,59.4,55.5,30.12,South,174,0.0,0.0,87,0.00,CLR,,0.00,WeatherDisplay:10.37,2015-05-30 05:32:00,
2015-05-30 01:37:00,59.0,55.1,30.12,South,174,0.0,0.0,87,0.00,CLR,,0.00,WeatherDisplay:10.37,2015-05-30 05:37:00,
2015-05-30 01:42:00,59.0,55.4,30.12,South,186,1.2,1.2,88,0.00,CLR,,0.00,WeatherDisplay:10.37,2015-05-30 05:42:00,
2015-05-30 01:47:00,58.8,55.3,30.12,South,186,0.0,0.0,88,0.00,CLR,,0.00,WeatherDisplay:10.37,2015-05-30 05:47:00,
2015-05-30 01:52:00,58.2,55.0,30.11,East,93,1.2,1.8,89,0.00,CLR,,0.00,WeatherDisplay:10.37,2015-05-30 05:52:00,
2015-05-30 01:57:00,58.2,55.0,30.11,SSE,168,0.0,0.0,89,0.00,CLR,,0.00,WeatherDisplay:10.37,2015-05-30 05:57:00,
2015-05-30 02:02:00,58.1,54.9,30.11,SSE,168,1.2,1.2,89,0.00,CLR,,0.00,WeatherDisplay:10.37,2015-05-30 06:02:00,
2015-05-30 02:07:00,58.3,55.1,30.11,SSE,168,1.2,0.0,89,0.00,CLR,,0.00,WeatherDisplay:10.37,2015-05-30 06:07:00,
2015-05-30 02:12:00,58.3,55.1,30.11,SSE,168,0.0,0.0,89,0.00,CLR,,0.00,WeatherDisplay:10.37,2015-05-30 06:12:00,
2015-05-30 02:17:00,58.2,55.0,30.11,WSW,250,1.2,1.2,89,0.00,CLR,,0.00,WeatherDisplay:10.37,2015-05-30 06:17:00,
2015-05-30 02:22:00,58.1,54.9,30.11,WSW,250,0.0,0.0,89,0.00,CLR,,0.00,WeatherDisplay:10.37,2015-05-30 06:22:00,
2015-05-30 02:27:00,58.4,55.2,30.11,SE,142,2.3,2.3,89,0.00,CLR,,0.00,WeatherDisplay:10.37,2015-05-30 06:27:00,
2015-05-30 02:32:00,59.0,55.4,30.11,SSE,162,3.5,3.5,88,0.00,CLR,,0.00,WeatherDisplay:10.37,2015-05-30 06:32:00,
2015-05-30 02:37:00,59.6,56.0,30.11,SSW,200,2.3,2.3,88,0.00,CLR,,0.00,WeatherDisplay:10.37,2015-05-30 06:37:00,
2015-05-30 02:42:00,59.5,55.6,30.10,SE,146,1.2,1.9,87,0.00,CLR,,0.00,WeatherDisplay:10.37,2015-05-30 06:42:00,
2015-05-30 02:47:00,60.1,56.2,30.10,ESE,109,3.5,3.5,87,0.00,CLR,,0.00,WeatherDisplay:10.37,2015-05-30 06:47:00,
2015-05-30 02:52:00,60.4,56.5,30.10,ESE,109,0.0,0.0,87,0.00,CLR,,0.00,WeatherDisplay:10.37,2015-05-30 06:52:00,
2015-05-30 02:57:00,60.2,56.3,30.09,ESE,109,1.2,1.2,87,0.00,CLR,,0.00,WeatherDisplay:10.37,2015-05-30 06:57:00,
2015-05-30 03:02:00,59.9,56.0,30.10,ESE,109,1.2,1.3,87,0.00,CLR,,0.00,WeatherDisplay:10.37,2015-05-30 07:02:00,
2015-05-30 03:07:00,59.9,56.3,30.09,ESE,109,0.0,0.0,88,0.00,CLR,,0.00,WeatherDisplay:10.37,2015-05-30 07:07:00,
2015-05-30 03:12:00,60.1,56.2,30.09,ESE,109,0.0,0.0,87,0.00,CLR,,0.00,WeatherDisplay:10.37,2015-05-30 07:12:00,
2015-05-30 03:17:00,60.0,56.1,30.09,SW,230,1.2,0.0,87,0.00,CLR,,0.00,WeatherDisplay:10.37,2015-05-30 07:17:00,
2015-05-30 03:22:00,60.0,56.4,30.09,SE,132,2.3,2.3,88,0.00,CLR,,0.00,WeatherDisplay:10.37,2015-05-30 07:22:00,
2015-05-30 03:27:00,60.0,56.1,30.09,South,169,1.0,1.1,87,0.00,CLR,,0.00,WeatherDisplay:10.37,2015-05-30 07:27:00,
2015-05-30 03:32:00,61.2,57.3,30.09,SSE,167,2.3,2.3,87,0.00,CLR,,0.00,WeatherDisplay:10.37,2015-05-30 07:32:00,
2015-05-30 03:37:00,61.8,57.6,30.08,ESE,119,0.0,0.0,86,0.00,CLR,,0.00,WeatherDisplay:10.37,2015-05-30 07:37:00,
2015-05-30 03:42:00,62.0,57.4,30.08,ESE,121,2.3,2.3,85,0.00,CLR,,0.00,WeatherDisplay:10.37,2015-05-30 07:42:00,
2015-05-30 03:47:00,62.5,57.9,30.08,ESE,123,3.5,3.5,85,0.00,CLR,,0.00,WeatherDisplay:10.37,2015-05-30 07:47:00,
2015-05-30 03:52:00,63.4,58.1,30.08,East,94,2.3,0.0,83,0.00,CLR,,0.00,WeatherDisplay:10.37,2015-05-30 07:52:00,
2015-05-30 03:57:00,63.9,58.3,30.08,SE,139,1.2,1.2,82,0.00,CLR,,0.00,WeatherDisplay:10.37,2015-05-30 07:57:00,
2015-05-30 04:02:00,64.0,58.4,30.08,ESE,113,0.0,0.0,82,0.00,CLR,,0.00,WeatherDisplay:10.37,2015-05-30 08:02:00,
2015-05-30 04:07:00,64.6,58.3,30.08,SE,128,3.5,3.5,80,0.00,CLR,,0.00,WeatherDisplay:10.37,2015-05-30 08:07:00,
2015-05-30 04:12:00,64.8,58.5,30.08,SE,136,3.5,3.5,80,0.00,CLR,,0.00,WeatherDisplay:10.37,2015-05-30 08:12:00,
2015-05-30 04:17:00,64.9,58.6,30.08,SSE,162,8.1,8.1,80,0.00,CLR,,0.00,WeatherDisplay:10.37,2015-05-30 08:17:00,
2015-05-30 04:22:00,64.9,58.6,30.08,ESE,111,3.5,3.5,80,0.00,CLR,,0.00,WeatherDisplay:10.37,2015-05-30 08:22:00,
2015-05-30 04:27:00,65.1,58.8,30.08,East,98,2.3,2.3,80,0.00,CLR,,0.00,WeatherDisplay:10.37,2015-05-30 08:27:00,
2015-05-30 04:32:00,65.3,59.0,30.08,ESE,112,3.5,3.5,80,0.00,CLR,,0.00,WeatherDisplay:10.37,2015-05-30 08:32:00,
2015-05-30 04:37:00,65.5,59.5,30.08,ESE,121,3.5,3.5,81,0.00,CLR,,0.00,WeatherDisplay:10.37,2015-05-30 08:37:00,
2015-05-30 04:42:00,65.7,59.7,30.08,ESE,107,3.5,3.5,81,0.00,CLR,,0.00,WeatherDisplay:10.37,2015-05-30 08:42:00,
2015-05-30 04:47:00,65.8,59.8,30.08,SSW,213,3.5,3.5,81,0.00,CLR,,0.00,WeatherDisplay:10.37,2015-05-30 08:47:00,
2015-05-30 04:52:00,66.0,60.0,30.08,ESE,117,3.5,3.5,81,0.00,CLR,,0.00,WeatherDisplay:10.37,2015-05-30 08:52:00,
2015-05-30 04:57:00,66.2,60.2,30.08,South,191,3.5,3.5,81,0.00,CLR,,0.00,WeatherDisplay:10.37,2015-05-30 08:57:00,
2015-05-30 05:02:00,66.3,60.3,30.07,SE,131,1.2,1.2,81,0.00,CLR,,0.00,WeatherDisplay:10.37,2015-05-30 09:02:00,
2015-05-30 05:07:00,66.4,60.4,30.08,East,84,3.5,3.5,81,0.00,CLR,,0.00,WeatherDisplay:10.37,2015-05-30 09:07:00,
2015-05-30 05:12:00,66.5,60.5,30.08,ENE,68,4.6,4.6,81,0.00,CLR,,0.00,WeatherDisplay:10.37,2015-05-30 09:12:00,
2015-05-30 05:17:00,66.8,60.8,30.07,SE,124,4.6,4.6,81,0.00,CLR,,0.00,WeatherDisplay:10.37,2015-05-30 09:17:00,
2015-05-30 05:22:00,66.8,60.8,30.07,SW,217,2.3,2.3,81,0.00,CLR,,0.00,WeatherDisplay:10.37,2015-05-30 09:22:00,
2015-05-30 05:27:00,66.7,60.7,30.07,SSE,158,0.0,0.0,81,0.00,CLR,,0.00,WeatherDisplay:10.37,2015-05-30 09:27:00,
2015-05-30 05:32:00,66.7,61.0,30.07,South,173,1.2,1.2,82,0.00,CLR,,0.00,WeatherDisplay:10.37,2015-05-30 09:32:00,
2015-05-30 05:37:00,66.8,61.1,30.07,South,173,1.2,1.2,82,0.00,CLR,,0.00,WeatherDisplay:10.37,2015-05-30 09:37:00,
2015-05-30 05:42:00,66.8,61.1,30.07,South,179,4.6,4.6,82,0.00,CLR,,0.00,WeatherDisplay:10.37,2015-05-30 09:42:00,
2015-05-30 05:47:00,66.9,61.2,30.07,ENE,59,2.3,2.3,82,0.00,CLR,,0.00,WeatherDisplay:10.37,2015-05-30 09:47:00,
2015-05-30 05:52:00,66.9,61.2,30.07,SE,136,2.3,2.3,82,0.00,CLR,,0.00,WeatherDisplay:10.37,2015-05-30 09:52:00,
2015-05-30 05:57:00,67.0,61.3,30.07,SSW,200,6.9,6.9,82,0.00,CLR,,0.00,WeatherDisplay:10.37,2015-05-30 09:57:00,
2015-05-30 06:02:00,67.1,61.4,30.08,ESE,117,4.0,4.0,82,0.00,CLR,,0.00,WeatherDisplay:10.37,2015-05-30 10:02:00,
2015-05-30 06:07:00,67.2,61.5,30.08,SW,214,4.6,4.6,82,0.00,CLR,,0.00,WeatherDisplay:10.37,2015-05-30 10:07:00,
2015-05-30 06:12:00,67.2,61.5,30.08,South,176,3.5,3.5,82,0.00,CLR,,0.00,WeatherDisplay:10.37,2015-05-30 10:12:00,
2015-05-30 06:17:00,67.2,61.5,30.08,South,188,4.6,4.6,82,0.00,CLR,,0.00,WeatherDisplay:10.37,2015-05-30 10:17:00,
2015-05-30 06:22:00,67.2,61.5,30.08,WNW,285,4.6,4.6,82,0.00,CLR,,0.00,WeatherDisplay:10.37,2015-05-30 10:22:00,
2015-05-30 06:27:00,67.2,61.9,30.08,South,186,2.3,2.3,83,0.00,CLR,,0.00,WeatherDisplay:10.37,2015-05-30 10:27:00,
2015-05-30 06:32:00,67.2,61.9,30.07,South,182,6.9,6.9,83,0.00,CLR,,0.00,WeatherDisplay:10.37,2015-05-30 10:32:00,
2015-05-30 06:37:00,67.3,62.0,30.07,ESE,105,3.5,3.5,83,0.00,CLR,,0.00,WeatherDisplay:10.37,2015-05-30 10:37:00,
2015-05-30 06:42:00,67.3,62.0,30.08,SSW,210,3.5,3.5,83,0.00,CLR,,0.00,WeatherDisplay:10.37,2015-05-30 10:42:00,
2015-05-30 06:47:00,67.4,62.1,30.08,SW,227,10.4,10.4,83,0.00,CLR,,0.00,WeatherDisplay:10.37,2015-05-30 10:47:00,
2015-05-30 06:52:00,67.5,62.2,30.08,East,101,4.6,4.6,83,0.00,CLR,,0.00,WeatherDisplay:10.37,2015-05-30 10:52:00,
2015-05-30 06:57:00,67.6,62.3,30.08,SSW,196,7.0,7.0,83,0.00,CLR,,0.00,WeatherDisplay:10.37,2015-05-30 10:57:00,
2015-05-30 07:02:00,67.7,62.3,30.07,East,96,3.5,3.5,83,0.00,CLR,,0.00,WeatherDisplay:10.37,2015-05-30 11:02:00,
2015-05-30 07:07:00,67.7,62.3,30.07,South,191,5.0,5.0,83,0.00,CLR,,0.00,WeatherDisplay:10.37,2015-05-30 11:07:00,
2015-05-30 07:12:00,67.9,62.5,30.07,SSW,199,5.8,5.8,83,0.00,CLR,,0.00,WeatherDisplay:10.37,2015-05-30 11:12:00,
2015-05-30 07:17:00,67.9,62.5,30.07,ESE,102,5.8,5.8,83,0.00,CLR,,0.00,WeatherDisplay:10.37,2015-05-30 11:17:00,
2015-05-30 07:22:00,68.0,62.6,30.07,SSE,162,4.6,4.6,83,0.00,CLR,,0.00,WeatherDisplay:10.37,2015-05-30 11:22:00,
2015-05-30 07:27:00,68.0,62.6,30.08,SE,139,5.8,5.8,83,0.00,CLR,,0.00,WeatherDisplay:10.37,2015-05-30 11:27:00,
2015-05-30 07:32:00,68.0,62.6,30.08,WSW,244,4.6,4.6,83,0.00,CLR,,0.00,WeatherDisplay:10.37,2015-05-30 11:32:00,
2015-05-30 07:37:00,68.1,62.7,30.08,South,171,12.7,12.7,83,0.00,CLR,,0.00,WeatherDisplay:10.37,2015-05-30 11:37:00,
2015-05-30 07:42:00,68.2,62.8,30.08,WSW,240,9.0,9.0,83,0.00,CLR,,0.00,WeatherDisplay:10.37,2015-05-30 11:42:00,
2015-05-30 07:47:00,68.3,62.9,30.07,ESE,102,3.5,4.0,83,0.00,CLR,,0.00,WeatherDisplay:10.37,2015-05-30 11:47:00,
2015-05-30 07:52:00,68.4,63.0,30.07,SW,232,12.7,12.7,83,0.00,CLR,,0.00,WeatherDisplay:10.37,2015-05-30 11:52:00,
2015-05-30 07:57:00,68.5,63.1,30.07,SE,126,3.5,3.5,83,0.00,CLR,,0.00,WeatherDisplay:10.37,2015-05-30 11:57:00,
2015-05-30 08:02:00,68.6,63.2,30.07,SSE,153,6.9,6.9,83,0.00,CLR,,0.00,WeatherDisplay:10.37,2015-05-30 12:02:00,
2015-05-30 08:07:00,68.7,63.3,30.07,WSW,238,5.8,5.8,83,0.00,CLR,,0.00,WeatherDisplay:10.37,2015-05-30 12:07:00,
2015-05-30 08:12:00,69.3,63.6,30.07,East,82,6.9,6.9,82,0.00,CLR,,0.00,WeatherDisplay:10.37,2015-05-30 12:12:00,
2015-05-30 08:17:00,69.8,64.1,30.07,SW,217,5.0,5.0,82,0.00,CLR,,0.00,WeatherDisplay:10.37,2015-05-30 12:17:00,
2015-05-30 08:22:00,70.3,64.2,30.07,SSW,211,5.0,5.0,81,0.00,CLR,,0.00,WeatherDisplay:10.37,2015-05-30 12:22:00,
2015-05-30 08:27:00,70.0,63.5,30.07,South,182,4.6,4.6,80,0.00,CLR,,0.00,WeatherDisplay:10.37,2015-05-30 12:27:00,
2015-05-30 08:32:00,69.8,63.7,30.07,SW,229,10.4,10.4,81,0.00,CLR,,0.00,WeatherDisplay:10.37,2015-05-30 12:32:00,
2015-05-30 08:37:00,69.7,63.6,30.07,SSW,202,8.1,8.1,81,0.00,CLR,,0.00,WeatherDisplay:10.37,2015-05-30 12:37:00,
2015-05-30 08:42:00,69.6,63.9,30.06,SSE,161,3.5,3.5,82,0.00,CLR,,0.00,WeatherDisplay:10.37,2015-05-30 12:42:00,
2015-05-30 08:47:00,69.9,64.2,30.06,SSW,205,4.6,4.6,82,0.00,CLR,,0.00,WeatherDisplay:10.37,2015-05-30 12:47:00,
2015-05-30 08:52:00,70.0,63.9,30.06,WSW,257,4.6,4.6,81,0.00,CLR,,0.00,WeatherDisplay:10.37,2015-05-30 12:52:00,
2015-05-30 08:57:00,70.2,64.1,30.06,WSW,244,13.8,13.8,81,0.00,CLR,,0.00,WeatherDisplay:10.37,2015-05-30 12:57:00,
2015-05-30 09:02:00,71.0,64.5,30.06,SSE,164,15.0,15.0,80,0.00,CLR,,0.00,WeatherDisplay:10.37,2015-05-30 13:02:00,
2015-05-30 09:07:00,71.3,64.4,30.06,SSW,200,11.5,11.5,79,0.00,CLR,,0.00,WeatherDisplay:10.37,2015-05-30 13:07:00,
2015-05-30 09:12:00,71.3,64.4,30.05,WSW,240,11.5,11.5,79,0.00,CLR,,0.00,WeatherDisplay:10.37,2015-05-30 13:12:00,
2015-05-30 09:17:00,71.9,65.0,30.05,East,92,6.0,6.0,79,0.00,CLR,,0.00,WeatherDisplay:10.37,2015-05-30 13:17:00,
2015-05-30 09:22:00,71.9,64.7,30.05,South,178,12.7,12.7,78,0.00,CLR,,0.00,WeatherDisplay:10.37,2015-05-30 13:22:00,
2015-05-30 09:27:00,71.9,64.7,30.05,ESE,107,10.4,10.4,78,0.00,CLR,,0.00,WeatherDisplay:10.37,2015-05-30 13:27:00,
2015-05-30 09:32:00,72.0,64.8,30.05,SW,216,8.1,8.1,78,0.00,CLR,,0.00,WeatherDisplay:10.37,2015-05-30 13:32:00,
2015-05-30 09:37:00,72.4,65.2,30.05,ESE,115,3.5,3.5,78,0.00,CLR,,0.00,WeatherDisplay:10.37,2015-05-30 13:37:00,
2015-05-30 09:42:00,72.5,64.9,30.05,SW,236,11.5,11.5,77,0.00,CLR,,0.00,WeatherDisplay:10.37,2015-05-30 13:42:00,
2015-05-30 09:47:00,72.4,64.8,30.05,SSW,209,10.4,10.4,77,0.00,CLR,,0.00,WeatherDisplay:10.37,2015-05-30 13:47:00,
2015-05-30 09:52:00,72.6,65.0,30.05,SSW,202,4.6,4.6,77,0.00,CLR,,0.00,WeatherDisplay:10.37,2015-05-30 13:52:00,
2015-05-30 09:57:00,72.4,64.8,30.05,SW,215,12.7,12.7,77,0.00,CLR,,0.00,WeatherDisplay:10.37,2015-05-30 13:57:00,
2015-05-30 10:02:00,72.8,65.2,30.04,SSW,213,5.0,5.0,77,0.00,CLR,,0.00,WeatherDisplay:10.37,2015-05-30 14:02:00,
2015-05-30 10:07:00,72.8,65.2,30.04,SSW,198,9.2,9.2,77,0.00,CLR,,0.00,WeatherDisplay:10.37,2015-05-30 14:07:00,
2015-05-30 10:12:00,72.8,64.8,30.04,SSW,196,4.6,4.8,76,0.00,CLR,,0.00,WeatherDisplay:10.37,2015-05-30 14:12:00,
2015-05-30 10:17:00,72.8,64.8,30.03,East,94,11.5,11.5,76,0.00,CLR,,0.00,WeatherDisplay:10.37,2015-05-30 14:17:00,
2015-05-30 10:22:00,73.6,65.2,30.03,East,84,5.8,5.8,75,0.00,CLR,,0.00,WeatherDisplay:10.37,2015-05-30 14:22:00,
2015-05-30 10:27:00,74.1,65.3,30.03,East,82,6.9,6.9,74,0.00,CLR,,0.00,WeatherDisplay:10.37,2015-05-30 14:27:00,
2015-05-30 10:32:00,74.2,65.4,30.04,SSW,205,5.8,5.8,74,0.00,CLR,,0.00,WeatherDisplay:10.37,2015-05-30 14:32:00,
2015-05-30 10:37:00,74.0,65.6,30.03,ENE,71,3.5,3.5,75,0.00,CLR,,0.00,WeatherDisplay:10.37,2015-05-30 14:37:00,
2015-05-30 10:42:00,74.2,65.4,30.04,SW,230,12.7,12.7,74,0.00,CLR,,0.00,WeatherDisplay:10.37,2015-05-30 14:42:00,
2015-05-30 10:47:00,73.4,65.4,30.03,South,190,11.5,11.5,76,0.00,CLR,,0.00,WeatherDisplay:10.37,2015-05-30 14:47:00,
2015-05-30 10:52:00,73.8,65.4,30.03,NNW,348,6.9,6.9,75,0.00,CLR,,0.00,WeatherDisplay:10.37,2015-05-30 14:52:00,
2015-05-30 10:57:00,74.3,65.9,30.03,SSE,162,3.5,3.5,75,0.00,CLR,,0.00,WeatherDisplay:10.37,2015-05-30 14:57:00,
2015-05-30 11:02:00,74.5,65.7,30.03,South,174,6.9,6.9,74,0.00,CLR,,0.00,WeatherDisplay:10.37,2015-05-30 15:02:00,
2015-05-30 11:07:00,75.2,65.9,30.03,SE,126,6.9,6.9,73,0.00,CLR,,0.00,WeatherDisplay:10.37,2015-05-30 15:07:00,
2015-05-30 11:12:00,75.5,66.2,30.03,ENE,69,4.0,4.0,73,0.00,CLR,,0.00,WeatherDisplay:10.37,2015-05-30 15:12:00,
2015-05-30 11:17:00,75.1,65.9,30.03,SW,232,9.2,9.2,73,0.00,CLR,,0.00,WeatherDisplay:10.37,2015-05-30 15:17:00,
2015-05-30 11:22:00,74.9,66.1,30.03,SW,229,9.2,9.2,74,0.00,CLR,,0.00,WeatherDisplay:10.37,2015-05-30 15:22:00,
2015-05-30 11:27:00,74.8,66.0,30.03,East,101,3.5,3.5,74,0.00,CLR,,0.00,WeatherDisplay:10.37,2015-05-30 15:27:00,
2015-05-30 11:32:00,75.1,66.2,30.03,South,182,4.6,4.6,74,0.00,CLR,,0.00,WeatherDisplay:10.37,2015-05-30 15:32:00,
2015-05-30 11:37:00,75.0,66.1,30.03,SE,128,5.8,5.8,74,0.00,CLR,,0.00,WeatherDisplay:10.37,2015-05-30 15:37:00,
2015-05-30 11:42:00,75.1,66.2,30.03,SE,129,4.6,4.6,74,0.00,CLR,,0.00,WeatherDisplay:10.37,2015-05-30 15:42:00,
2015-05-30 11:48:00,75.3,66.4,30.03,SW,227,6.9,6.9,74,0.00,CLR,,0.00,WeatherDisplay:10.37,2015-05-30 15:48:00,
2015-05-30 11:53:00,75.2,66.3,30.02,WSW,239,9.2,9.2,74,0.00,CLR,,0.00,WeatherDisplay:10.37,2015-05-30 15:53:00,
2015-05-30 11:58:00,75.4,66.1,30.02,WNW,302,6.9,6.9,73,0.00,CLR,,0.00,WeatherDisplay:10.37,2015-05-30 15:58:00,
2015-05-30 12:03:00,75.6,65.9,30.02,SSW,209,5.8,6.9,72,0.00,CLR,,0.00,WeatherDisplay:10.37,2015-05-30 16:03:00,
2015-05-30 12:08:00,76.1,66.4,30.02,ESE,123,5.8,5.9,72,0.00,CLR,,0.00,WeatherDisplay:10.37,2015-05-30 16:08:00,
2015-05-30 12:13:00,76.3,66.2,30.02,East,87,6.9,6.9,71,0.00,CLR,,0.00,WeatherDisplay:10.37,2015-05-30 16:13:00,
2015-05-30 12:18:00,77.0,66.0,30.01,SSW,198,10.4,10.4,69,0.00,CLR,,0.00,WeatherDisplay:10.37,2015-05-30 16:18:00,
2015-05-30 12:23:00,77.1,66.1,30.01,East,101,6.9,6.9,69,0.00,CLR,,0.00,WeatherDisplay:10.37,2015-05-30 16:23:00,
2015-05-30 12:28:00,77.4,66.0,30.01,SW,236,11.5,11.5,68,0.00,CLR,,0.00,WeatherDisplay:10.37,2015-05-30 16:28:00,
2015-05-30 12:33:00,77.1,65.3,30.01,WSW,246,11.5,11.5,67,0.00,CLR,,0.00,WeatherDisplay:10.37,2015-05-30 16:33:00,
2015-05-30 12:38:00,77.3,65.5,30.01,South,183,9.2,9.2,67,0.00,CLR,,0.00,WeatherDisplay:10.37,2015-05-30 16:38:00,
2015-05-30 12:43:00,77.8,66.0,30.01,SSW,213,5.8,5.8,67,0.00,CLR,,0.00,WeatherDisplay:10.37,2015-05-30 16:43:00,
2015-05-30 12:48:00,77.4,65.6,30.01,SW,225,10.4,10.4,67,0.00,CLR,,0.00,WeatherDisplay:10.37,2015-05-30 16:48:00,
2015-05-30 12:53:00,77.0,65.2,30.01,SSW,213,10.4,10.4,67,0.00,CLR,,0.00,WeatherDisplay:10.37,2015-05-30 16:53:00,
2015-05-30 12:58:00,76.8,65.4,30.00,NE,42,6.9,6.9,68,0.00,CLR,,0.00,WeatherDisplay:10.37,2015-05-30 16:58:00,
2015-05-30 13:03:00,77.0,66.0,30.00,WSW,240,9.0,9.0,69,0.00,CLR,,0.00,WeatherDisplay:10.37,2015-05-30 17:03:00,
2015-05-30 13:08:00,77.0,65.6,30.00,SW,229,6.9,6.9,68,0.00,CLR,,0.00,WeatherDisplay:10.37,2015-05-30 17:08:00,
2015-05-30 13:13:00,77.8,66.0,30.00,SSW,192,10.4,10.4,67,0.00,CLR,,0.00,WeatherDisplay:10.37,2015-05-30 17:13:00,
2015-05-30 13:18:00,78.3,65.6,30.00,SW,222,10.4,10.4,65,0.00,CLR,,0.00,WeatherDisplay:10.37,2015-05-30 17:18:00,
2015-05-30 13:23:00,78.0,65.7,29.99,ENE,67,4.6,4.6,66,0.00,CLR,,0.00,WeatherDisplay:10.37,2015-05-30 17:23:00,
2015-05-30 13:28:00,78.3,65.6,29.99,SE,126,9.2,9.2,65,0.00,CLR,,0.00,WeatherDisplay:10.37,2015-05-30 17:28:00,
2015-05-30 13:33:00,78.3,65.6,29.98,East,90,13.8,13.8,65,0.00,CLR,,0.00,WeatherDisplay:10.37,2015-05-30 17:33:00,
2015-05-30 13:43:00,79.2,66.0,29.97,SSW,208,5.8,5.8,64,0.00,CLR,,0.00,WeatherDisplay:10.37,2015-05-30 17:43:00,
2015-05-30 13:48:00,79.1,64.5,29.98,SW,229,15.0,15.0,61,0.00,CLR,,0.00,WeatherDisplay:10.37,2015-05-30 17:48:00,
2015-05-30 13:53:00,78.7,65.5,29.97,East,92,11.5,11.5,64,0.00,CLR,,0.00,WeatherDisplay:10.37,2015-05-30 17:53:00,
2015-05-30 13:58:00,78.9,65.2,29.98,WSW,240,11.5,11.5,63,0.00,CLR,,0.00,WeatherDisplay:10.37,2015-05-30 17:58:00,
2015-05-30 14:03:00,78.7,65.5,29.97,WSW,240,11.5,11.5,64,0.00,CLR,,0.00,WeatherDisplay:10.37,2015-05-30 18:03:00,
2015-05-30 14:08:00,78.7,65.9,29.98,SE,130,11.5,11.5,65,0.00,CLR,,0.00,WeatherDisplay:10.37,2015-05-30 18:08:00,
2015-05-30 14:13:00,78.0,65.3,29.98,West,262,15.0,15.0,65,0.00,CLR,,0.00,WeatherDisplay:10.37,2015-05-30 18:13:00,
2015-05-30 14:18:00,77.5,66.1,29.98,SSW,205,17.3,17.3,68,0.00,CLR,,0.00,WeatherDisplay:10.37,2015-05-30 18:18:00,
2015-05-30 14:23:00,77.6,66.2,29.97,West,261,11.5,11.5,68,0.00,CLR,,0.00,WeatherDisplay:10.37,2015-05-30 18:23:00,
2015-05-30 14:28:00,77.6,66.6,29.96,East,84,10.4,10.4,69,0.00,CLR,,0.00,WeatherDisplay:10.37,2015-05-30 18:28:00,
2015-05-30 14:33:00,77.9,66.9,29.96,SSW,194,11.5,11.5,69,0.00,CLR,,0.00,WeatherDisplay:10.37,2015-05-30 18:33:00,
2015-05-30 14:38:00,78.0,67.0,29.96,SSW,210,11.5,11.5,69,0.00,CLR,,0.00,WeatherDisplay:10.37,2015-05-30 18:38:00,
2015-05-30 14:43:00,78.4,66.5,29.96,SSE,156,12.7,12.7,67,0.00,CLR,,0.00,WeatherDisplay:10.37,2015-05-30 18:43:00,
2015-05-30 14:48:00,78.7,66.8,29.96,SE,141,3.5,3.7,67,0.00,CLR,,0.00,WeatherDisplay:10.37,2015-05-30 18:48:00,
2015-05-30 14:53:00,79.1,66.3,29.96,WSW,237,9.2,9.2,65,0.00,CLR,,0.00,WeatherDisplay:10.37,2015-05-30 18:53:00,
2015-05-30 14:58:00,79.5,66.3,29.95,East,84,9.2,9.2,64,0.00,CLR,,0.00,WeatherDisplay:10.37,2015-05-30 18:58:00,
2015-05-30 15:03:00,79.4,66.2,29.95,SSE,160,9.2,9.2,64,0.00,CLR,,0.00,WeatherDisplay:10.37,2015-05-30 19:03:00,
2015-05-30 15:08:00,80.2,66.9,29.95,SW,221,15.0,15.0,64,0.00,CLR,,0.00,WeatherDisplay:10.37,2015-05-30 19:08:00,
2015-05-30 15:13:00,79.8,66.1,29.95,NW,310,11.5,11.5,63,0.00,CLR,,0.00,WeatherDisplay:10.37,2015-05-30 19:13:00,
2015-05-30 15:18:00,79.7,66.0,29.94,WSW,255,9.2,9.2,63,0.00,CLR,,0.00,WeatherDisplay:10.37,2015-05-30 19:18:00,
2015-05-30 15:23:00,80.0,65.8,29.94,SE,142,10.4,10.4,62,0.00,CLR,,0.00,WeatherDisplay:10.37,2015-05-30 19:23:00,
2015-05-30 15:28:00,80.7,66.5,29.94,SE,138,4.6,4.6,62,0.00,CLR,,0.00,WeatherDisplay:10.37,2015-05-30 19:28:00,
2015-05-30 15:33:00,80.4,66.2,29.93,SSW,210,6.9,6.9,62,0.00,CLR,,0.00,WeatherDisplay:10.37,2015-05-30 19:33:00,
2015-05-30 15:38:00,79.4,65.7,29.93,WSW,248,19.6,19.6,63,0.00,CLR,,0.00,WeatherDisplay:10.37,2015-05-30 19:38:00,
2015-05-30 15:43:00,79.9,66.2,29.93,SSW,213,3.5,3.5,63,0.00,CLR,,0.00,WeatherDisplay:10.37,2015-05-30 19:43:00,
2015-05-30 15:48:00,80.5,65.3,29.93,SSW,213,17.3,17.3,60,0.00,CLR,,0.00,WeatherDisplay:10.37,2015-05-30 19:48:00,
2015-05-30 15:53:00,80.0,65.8,29.92,SSE,154,3.5,3.5,62,0.00,CLR,,0.00,WeatherDisplay:10.37,2015-05-30 19:53:00,
2015-05-30 15:58:00,80.0,65.8,29.92,ENE,78,9.0,9.0,62,0.00,CLR,,0.00,WeatherDisplay:10.37,2015-05-30 19:58:00,
2015-05-30 16:03:00,79.5,64.9,29.92,SW,217,6.9,6.9,61,0.00,CLR,,0.00,WeatherDisplay:10.37,2015-05-30 20:03:00,
2015-05-30 16:08:00,80.1,65.0,29.92,SE,126,15.0,15.0,60,0.00,CLR,,0.00,WeatherDisplay:10.37,2015-05-30 20:08:00,
2015-05-30 16:13:00,80.1,64.0,29.91,East,91,16.1,16.1,58,0.00,CLR,,0.00,WeatherDisplay:10.37,2015-05-30 20:13:00,
2015-05-30 16:18:00,80.8,64.6,29.91,WSW,250,12.7,12.7,58,0.00,CLR,,0.00,WeatherDisplay:10.37,2015-05-30 20:18:00,
2015-05-30 16:23:00,80.9,64.7,29.91,ENE,73,11.5,11.5,58,0.00,CLR,,0.00,WeatherDisplay:10.37,2015-05-30 20:23:00,
2015-05-30 16:28:00,80.7,64.5,29.91,SE,143,11.5,11.5,58,0.00,CLR,,0.00,WeatherDisplay:10.37,2015-05-30 20:28:00,
2015-05-30 16:33:00,80.6,64.9,29.92,SSW,192,10.4,10.4,59,0.00,CLR,,0.00,WeatherDisplay:10.37,2015-05-30 20:33:00,
2015-05-30 16:38:00,80.4,64.3,29.91,SW,215,11.0,11.0,58,0.00,CLR,,0.00,WeatherDisplay:10.37,2015-05-30 20:38:00,
2015-05-30 16:43:00,80.1,64.0,29.91,East,101,4.6,4.6,58,0.00,CLR,,0.00,WeatherDisplay:10.37,2015-05-30 20:43:00,
2015-05-30 16:48:00,80.0,64.9,29.91,SSE,158,10.4,10.4,60,0.00,CLR,,0.00,WeatherDisplay:10.37,2015-05-30 20:48:00,
2015-05-30 16:53:00,79.4,64.8,29.92,SSE,153,9.2,9.2,61,0.00,CLR,,0.00,WeatherDisplay:10.37,2015-05-30 20:53:00,
2015-05-30 16:58:00,78.8,65.1,29.92,SSW,206,7.0,7.0,63,0.00,CLR,,0.00,WeatherDisplay:10.37,2015-05-30 20:58:00,
2015-05-30 17:03:00,78.7,65.0,29.92,SE,125,3.5,3.5,63,0.00,CLR,,0.00,WeatherDisplay:10.37,2015-05-30 21:03:00,
2015-05-30 17:08:00,78.7,65.5,29.92,SE,135,6.9,6.9,64,0.00,CLR,,0.00,WeatherDisplay:10.37,2015-05-30 21:08:00,
2015-05-30 17:13:00,78.5,65.8,29.92,SSW,196,3.5,3.5,65,0.00,CLR,,0.00,WeatherDisplay:10.37,2015-05-30 21:13:00,
2015-05-30 17:18:00,78.0,65.3,29.92,SW,215,8.1,8.1,65,0.00,CLR,,0.00,WeatherDisplay:10.37,2015-05-30 21:18:00,
2015-05-30 17:23:00,77.5,65.2,29.92,WSW,242,11.5,11.5,66,0.00,CLR,,0.00,WeatherDisplay:10.37,2015-05-30 21:23:00,
2015-05-30 17:28:00,77.1,65.3,29.92,SW,226,11.5,11.5,67,0.00,CLR,,0.00,WeatherDisplay:10.37,2015-05-30 21:28:00,
2015-05-30 17:33:00,76.9,65.5,29.92,SSW,209,2.0,2.0,68,0.00,CLR,,0.00,WeatherDisplay:10.37,2015-05-30 21:33:00,
2015-05-30 17:38:00,76.7,65.8,29.92,East,91,1.2,1.2,69,0.00,CLR,,0.00,WeatherDisplay:10.37,2015-05-30 21:38:00,
2015-05-30 17:43:00,75.9,67.0,29.96,WSW,256,15.0,15.0,74,0.06,RA,,0.09,WeatherDisplay:10.37,2015-05-30 21:43:00,
2015-05-30 17:48:00,71.3,65.5,29.97,SSE,166,17.3,17.3,82,0.31,RA,,0.32,WeatherDisplay:10.37,2015-05-30 21:48:00,
2015-05-30 17:53:00,68.5,63.8,29.96,West,259,9.2,9.2,85,0.37,RA,,0.38,WeatherDisplay:10.37,2015-05-30 21:53:00,
2015-05-30 17:58:00,66.4,62.4,29.95,South,172,6.9,6.9,87,0.44,RA,,0.44,WeatherDisplay:10.37,2015-05-30 21:58:00,
2015-05-30 18:03:00,65.4,61.8,29.93,West,274,4.6,4.6,88,0.48,RA,,0.48,WeatherDisplay:10.37,2015-05-30 22:03:00,
2015-05-30 18:08:00,64.9,61.6,29.93,WNW,282,1.2,0.0,89,0.48,RA,,0.48,WeatherDisplay:10.37,2015-05-30 22:08:00,
2015-05-30 18:13:00,65.1,62.1,29.94,North,5,2.3,2.3,90,0.48,,,0.48,WeatherDisplay:10.37,2015-05-30 22:13:00,
2015-05-30 18:18:00,65.2,62.2,29.94,North,360,0.0,0.0,90,0.48,CLR,,0.48,WeatherDisplay:10.37,2015-05-30 22:18:00,
2015-05-30 18:23:00,65.6,62.9,29.93,North,9,2.3,2.3,91,0.48,CLR,,0.48,WeatherDisplay:10.37,2015-05-30 22:23:00,
2015-05-30 18:28:00,66.2,63.5,29.94,SSE,154,3.5,3.5,91,0.48,CLR,,0.48,WeatherDisplay:10.37,2015-05-30 22:28:00,
2015-05-30 18:33:00,66.2,63.5,29.94,East,98,3.0,3.0,91,0.48,CLR,,0.48,WeatherDisplay:10.37,2015-05-30 22:33:00,
2015-05-30 18:38:00,66.6,64.2,29.94,East,101,3.5,3.5,92,0.48,CLR,,0.48,WeatherDisplay:10.37,2015-05-30 22:38:00,
2015-05-30 18:43:00,66.6,64.2,29.94,East,101,1.2,1.2,92,0.42,CLR,,0.48,WeatherDisplay:10.37,2015-05-30 22:43:00,
2015-05-30 18:48:00,66.7,64.3,29.94,East,101,1.2,1.2,92,0.17,CLR,,0.48,WeatherDisplay:10.37,2015-05-30 22:48:00,
2015-05-30 18:53:00,66.8,64.4,29.94,East,101,0.0,0.0,92,0.11,CLR,,0.48,WeatherDisplay:10.37,2015-05-30 22:53:00,
2015-05-30 18:58:00,67.0,64.6,29.94,East,101,2.3,2.3,92,0.05,RA,,0.49,WeatherDisplay:10.37,2015-05-30 22:58:00,
2015-05-30 19:03:00,67.1,65.0,29.94,East,101,1.2,0.0,93,0.01,RA,,0.49,WeatherDisplay:10.37,2015-05-30 23:03:00,
2015-05-30 19:08:00,67.2,65.1,29.93,East,101,0.0,0.0,93,0.01,CLR,,0.49,WeatherDisplay:10.37,2015-05-30 23:08:00,
2015-05-30 19:13:00,67.2,65.1,29.93,East,101,0.0,0.0,93,0.01,CLR,,0.49,WeatherDisplay:10.37,2015-05-30 23:13:00,